KORD/ORD METAR and TAF weather

Enter ICAO airport designator
Station Type Date Time Source
KORD METAR 2020/12/06 00:51 UTC NOAA

KORD 060051Z 07006KT 10SM SCT035 03/M03 A3012 RMK AO2 SLP205 T00281033


Station Type Date Time Source
KORD Decoded METAR 2020/12/06 00:51 UTC NOAA

CHICAGO O'HARE INTERNATIONAL, IL, United States (KORD) 41-59N 087-55W 200M
Dec 05, 2020 - 07:51 PM EST / 2020.12.06 0051 UTC
Wind: from the ENE (070 degrees) at 7 MPH (6 KT):0
Visibility: 10 mile(s):0
Sky conditions: partly cloudy
Temperature: 37.0 F (2.8 C)
Dew Point: 26.1 F (-3.3 C)
Relative Humidity: 64%
Pressure (altimeter): 30.12 in. Hg (1019 hPa)
ob: KORD 060051Z 07006KT 10SM SCT035 03/M03 A3012 RMK AO2 SLP205 T00281033
cycle: 1

Station Type Date Time Source
KORD TAF 2020/12/05 21:54 UTC NOAA

TAF
AMD KORD 052052Z 0521/0624 04005KT P6SM SCT025 BKN035
FM060600 35004KT P6SM BKN030 BKN090
FM061300 34005KT P6SM BKN025

Example: see airport list